Delta Virtual Airport Information Service

Juneau International Airport

ICAO: PAJN Country: United States
Latitude: 58.355 Longitude: -134.576
Latest Arrival : DAL1139 (B) (KSEA-PAJN) Latest Departure : ASA9563 (C) (PAJN-PANC)


WX CaptureLIVE
Data provided by noaa.gov | Fetched at 12:01:34

METAR : PAJN 151653Z 10011KT 6SM RA BR FEW005 BKN033 OVC050 12/10 A2999 RMK AO2 SLP155 VIS LWR NW P0009 T01220100

TAF : PAJN 151140Z 1512/1612 12013G23KT 4SM RA BR FEW007 SCT015 OVC025 FM151800 11015G25KT 5SM -SHRA BR FEW010 SCT020 OVC030 FM152200 12010KT P6SM VCSH SCT025 OVC050 FM160300 VRB05KT P6SM VCSH OVC050


Runway Data for PAJN
Data provided by openaviationdata.com

Runway ID Mag Var Hdg Length Elevation Surface ILS Freq ILS Id ILS Slope
8 29 75° 8436 ft 3 ft Asphalt 109.9 IJDL 0
26 29 255° 8436 ft 3 ft Asphalt -- -- --

Juneau International Airport, United States
Use only for reference purposes



Not for navigational purposes.